createdAt,value
2019-05-30T00:00:36.520Z,102180.59
2019-05-30T00:03:04.432Z,102181.05
2019-05-30T00:05:32.284Z,102179.32
2019-05-30T00:08:00.314Z,102174.07
2019-05-30T00:10:28.237Z,102178.02
2019-05-30T00:12:56.693Z,102180.23
2019-05-30T00:15:24.604Z,102177.61
2019-05-30T00:17:52.568Z,102176.72
2019-05-30T00:20:20.338Z,102169.30
2019-05-30T00:22:48.051Z,102175.45
2019-05-30T00:25:15.632Z,102173.72
2019-05-30T00:27:43.237Z,102177.66
2019-05-30T00:30:24.031Z,102175.87
2019-05-30T00:32:40.757Z,102172.83
2019-05-30T00:35:08.633Z,102171.53
2019-05-30T00:37:36.470Z,102171.56
2019-05-30T00:40:06.065Z,102171.57
2019-05-30T00:42:33.904Z,102165.44
2019-05-30T00:45:09.247Z,102157.97
2019-05-30T00:47:31.829Z,102159.33
2019-05-30T00:50:00.210Z,102156.70
2019-05-30T00:52:27.995Z,102163.27
2019-05-30T00:54:56.427Z,102158.45
2019-05-30T00:57:24.193Z,102145.78
2019-05-30T00:59:52.021Z,102147.56
2019-05-30T01:02:19.583Z,102148.00
2019-05-30T01:04:47.224Z,102142.31
2019-05-30T01:07:15.035Z,102145.37
2019-05-30T01:09:42.693Z,102144.52
2019-05-30T01:12:10.467Z,102133.56
2019-05-30T01:14:38.335Z,102136.19
2019-05-30T01:17:07.258Z,102129.62
2019-05-30T01:19:35.146Z,102127.03
2019-05-30T01:22:03.478Z,102122.63
2019-05-30T01:24:31.353Z,102121.33
2019-05-30T01:26:59.237Z,102120.05
2019-05-30T01:29:27.101Z,102111.28
2019-05-30T01:31:54.804Z,102113.02
2019-05-30T01:34:22.532Z,102123.11
2019-05-30T01:36:53.324Z,102115.69
2019-05-30T01:39:21.124Z,102116.96
2019-05-30T01:41:49.024Z,102104.30
2019-05-30T01:44:16.788Z,102105.18
2019-05-30T01:46:44.457Z,102096.85
2019-05-30T01:49:12.124Z,102096.00
2019-05-30T01:51:39.687Z,102091.64
2019-05-30T01:54:08.672Z,102085.92
2019-05-30T01:56:36.734Z,102089.02
2019-05-30T01:59:04.833Z,102075.89
2019-05-30T02:01:32.646Z,102075.42
2019-05-30T02:04:01.071Z,102066.27
2019-05-30T02:06:29.070Z,102061.45
2019-05-30T02:08:56.911Z,102062.34
2019-05-30T02:11:24.708Z,102053.56
2019-05-30T02:13:52.482Z,102053.11
2019-05-30T02:16:20.284Z,102046.53
2019-05-30T02:18:48.198Z,102049.16
2019-05-30T02:21:16.093Z,102041.28
2019-05-30T02:23:44.093Z,102040.02
2019-05-30T02:26:12.044Z,102044.38
2019-05-30T02:28:39.711Z,102034.77
2019-05-30T02:31:09.382Z,102033.45
2019-05-30T02:33:37.146Z,102035.61
2019-05-30T02:36:06.268Z,102035.61
2019-05-30T02:38:34.576Z,102030.78
2019-05-30T02:41:03.366Z,102025.53
2019-05-30T02:43:31.598Z,102025.98
2019-05-30T02:46:00.830Z,102025.10
2019-05-30T02:48:28.940Z,102019.42
2019-05-30T02:50:56.912Z,102022.05
2019-05-30T02:53:24.708Z,102023.79
2019-05-30T02:55:52.448Z,102022.91
2019-05-30T02:58:20.328Z,102023.36
2019-05-30T03:00:48.084Z,102018.11
2019-05-30T03:03:15.726Z,102012.86
2019-05-30T03:05:43.568Z,102010.23
2019-05-30T03:08:14.119Z,102009.34
2019-05-30T03:10:41.003Z,102008.46
2019-05-30T03:13:10.652Z,102009.34
2019-05-30T03:15:38.404Z,102015.02
2019-05-30T03:18:08.063Z,102001.04
2019-05-30T03:20:35.937Z,102001.04
2019-05-30T03:23:05.801Z,102007.13
2019-05-30T03:25:33.255Z,101999.68
2019-05-30T03:28:02.589Z,102003.63
2019-05-30T03:30:30.489Z,101994.00
2019-05-30T03:33:06.645Z,101996.21
2019-05-30T03:35:31.307Z,102002.31
2019-05-30T03:37:57.830Z,101998.36
2019-05-30T03:40:27.643Z,101991.80
2019-05-30T03:42:55.151Z,101991.80
2019-05-30T03:45:23.086Z,101987.44
2019-05-30T03:47:52.298Z,101990.48
2019-05-30T03:50:19.961Z,101992.26
2019-05-30T03:52:47.923Z,101990.48
2019-05-30T03:55:16.713Z,101982.61
2019-05-30T03:57:48.878Z,101979.55
2019-05-30T04:00:34.988Z,101979.08
2019-05-30T04:03:19.203Z,101975.14
2019-05-30T04:05:50.783Z,101975.14
2019-05-30T04:08:19.716Z,101980.81
2019-05-30T04:10:48.269Z,101979.50
2019-05-30T04:13:43.519Z,101982.59
2019-05-30T04:16:13.355Z,101976.03
2019-05-30T04:18:41.148Z,101977.34
2019-05-30T04:21:10.836Z,101974.72
2019-05-30T04:23:38.738Z,101972.08
2019-05-30T04:26:07.468Z,101972.08
2019-05-30T04:28:35.404Z,101976.02
2019-05-30T04:31:03.173Z,101965.05
2019-05-30T04:33:33.443Z,101965.09
2019-05-30T04:36:00.659Z,101964.63
2019-05-30T04:38:28.324Z,101961.12
2019-05-30T04:40:56.136Z,101963.74
2019-05-30T04:43:26.067Z,101965.52
2019-05-30T04:45:53.917Z,101962.88
2019-05-30T04:48:21.619Z,101969.88
2019-05-30T04:50:49.315Z,101961.10
2019-05-30T04:53:18.537Z,101968.55
2019-05-30T04:55:46.743Z,101962.41
2019-05-30T04:58:15.435Z,101957.16
2019-05-30T05:00:44.397Z,101959.35
2019-05-30T05:03:13.043Z,101954.95
2019-05-30T05:05:40.915Z,101961.09
2019-05-30T05:08:08.569Z,101960.66
2019-05-30T05:10:36.390Z,101956.72
2019-05-30T05:13:04.158Z,101952.73
2019-05-30T05:15:32.235Z,101952.32
2019-05-30T05:17:59.975Z,101951.00
2019-05-30T05:23:08.750Z,101954.94
2019-05-30T05:25:36.598Z,101952.73
2019-05-30T05:28:04.390Z,101947.06
2019-05-30T05:30:32.157Z,101945.30
2019-05-30T05:32:59.824Z,101938.28
2019-05-30T05:35:27.592Z,101939.60
2019-05-30T05:37:55.437Z,101940.05
2019-05-30T05:40:24.336Z,101933.91
2019-05-30T05:42:52.344Z,101929.08
2019-05-30T05:45:20.547Z,101928.64
2019-05-30T05:47:48.346Z,101935.20
2019-05-30T05:50:16.720Z,101942.20
2019-05-30T05:52:44.645Z,101939.56
2019-05-30T05:58:26.159Z,101939.50
2019-05-30T06:00:53.828Z,101942.99
2019-05-30T06:03:22.269Z,101940.80
2019-05-30T06:05:53.447Z,101943.41
2019-05-30T06:08:19.578Z,101946.45
2019-05-30T06:10:47.096Z,101945.14
2019-05-30T06:13:14.575Z,101953.44
2019-05-30T06:18:24.244Z,101956.47
2019-05-30T06:20:51.861Z,101959.08
2019-05-30T06:23:19.533Z,101952.52
2019-05-30T06:25:47.154Z,101959.50
2019-05-30T06:28:14.641Z,101955.55
2019-05-30T06:30:42.148Z,101955.55
2019-05-30T06:33:09.673Z,101952.03
2019-05-30T06:35:37.290Z,101953.34
2019-05-30T06:38:04.918Z,101955.07
2019-05-30T06:40:32.454Z,101952.89
2019-05-30T06:43:00.090Z,101952.00
2019-05-30T06:45:28.377Z,101956.78
2019-05-30T06:47:55.989Z,101958.97
2019-05-30T06:50:24.628Z,101961.58
2019-05-30T06:52:52.211Z,101959.37
2019-05-30T06:55:20.999Z,101968.52
2019-05-30T06:57:49.021Z,101971.15
2019-05-30T07:00:16.890Z,101967.20
2019-05-30T07:02:44.745Z,101969.80
2019-05-30T07:05:13.201Z,101975.47
2019-05-30T07:07:41.642Z,101972.84
2019-05-30T07:10:09.682Z,101974.16
2019-05-30T07:12:37.440Z,101975.90
2019-05-30T07:15:05.930Z,101975.05
2019-05-30T07:17:33.717Z,101981.16
2019-05-30T07:20:01.551Z,101978.99
2019-05-30T07:22:29.701Z,101981.16
2019-05-30T07:24:57.600Z,101982.45
2019-05-30T07:27:26.070Z,101983.77
2019-05-30T07:29:54.151Z,101985.50
2019-05-30T07:32:22.086Z,101989.02
2019-05-30T07:35:05.216Z,101988.60
2019-05-30T07:37:19.697Z,101991.65
2019-05-30T07:39:47.459Z,101998.64
2019-05-30T07:42:15.222Z,101999.95
2019-05-30T07:44:43.093Z,101994.70
2019-05-30T07:47:10.951Z,101996.47
2019-05-30T07:49:38.849Z,101999.11
2019-05-30T07:52:06.656Z,101995.16
2019-05-30T07:54:35.159Z,101998.64
2019-05-30T07:57:03.135Z,101999.95
2019-05-30T07:59:30.900Z,101996.47
2019-05-30T08:01:58.721Z,101996.47
2019-05-30T08:04:27.429Z,102002.16
2019-05-30T08:06:55.429Z,101995.59
2019-05-30T08:09:23.488Z,101997.38
2019-05-30T08:11:51.457Z,101996.05
2019-05-30T08:14:19.300Z,102002.63
2019-05-30T08:16:46.899Z,101995.59
2019-05-30T08:19:14.746Z,101996.92
2019-05-30T08:21:42.612Z,102000.43
2019-05-30T08:24:10.496Z,101989.91
2019-05-30T08:26:38.473Z,101994.28
2019-05-30T08:29:06.505Z,101994.74
2019-05-30T08:31:34.605Z,101985.97
2019-05-30T08:34:02.459Z,101993.42
2019-05-30T08:36:30.837Z,101987.28
2019-05-30T08:38:58.908Z,101992.07
2019-05-30T08:41:26.732Z,101982.44
2019-05-30T08:43:54.584Z,101984.19
2019-05-30T08:46:22.401Z,101988.56
2019-05-30T08:48:50.066Z,101982.41
2019-05-30T08:51:18.033Z,101985.50
2019-05-30T08:53:45.848Z,101971.48
2019-05-30T08:56:13.732Z,101978.48
2019-05-30T08:58:41.461Z,101982.44
2019-05-30T09:01:09.190Z,101991.64
2019-05-30T09:03:38.415Z,101985.08
2019-05-30T09:06:06.437Z,101992.55
2019-05-30T09:08:34.325Z,101986.39
2019-05-30T09:11:02.088Z,101992.97
2019-05-30T09:13:29.997Z,101978.50
2019-05-30T09:15:58.027Z,101972.80
2019-05-30T09:18:25.789Z,101980.64
2019-05-30T09:20:53.763Z,101967.09
2019-05-30T09:23:21.589Z,101970.55
2019-05-30T09:25:49.492Z,101970.12
2019-05-30T09:28:17.359Z,101980.62
2019-05-30T09:30:46.398Z,101979.75
2019-05-30T09:33:14.313Z,101979.77
2019-05-30T09:35:42.982Z,101965.76
2019-05-30T09:38:10.867Z,101973.18
2019-05-30T09:40:39.341Z,101973.16
2019-05-30T09:43:08.208Z,101978.83
2019-05-30T09:45:36.110Z,101979.30
2019-05-30T09:48:03.971Z,101983.23
2019-05-30T09:50:31.733Z,101983.20
2019-05-30T09:52:59.618Z,101972.66
2019-05-30T09:55:27.504Z,101978.30
2019-05-30T09:57:55.439Z,101972.60
2019-05-30T10:00:25.044Z,101982.63
2019-05-30T10:02:52.885Z,101983.02
2019-05-30T10:05:24.152Z,101990.90
2019-05-30T10:07:50.803Z,101999.20
2019-05-30T10:10:19.244Z,102001.42
2019-05-30T10:12:48.393Z,101998.34
2019-05-30T10:15:16.505Z,101992.23
2019-05-30T10:17:44.694Z,101984.33
2019-05-30T10:20:13.582Z,101989.11
2019-05-30T10:22:41.416Z,101988.21
2019-05-30T10:25:09.352Z,101988.66
2019-05-30T10:27:37.267Z,101990.41
2019-05-30T10:30:07.231Z,101992.61
2019-05-30T10:32:35.263Z,101991.73
2019-05-30T10:35:03.037Z,101995.23
2019-05-30T10:37:30.922Z,101996.08
2019-05-30T10:39:59.209Z,101992.56
2019-05-30T10:42:27.106Z,101988.60
2019-05-30T10:44:56.346Z,101979.36
2019-05-30T10:47:24.435Z,101985.02
2019-05-30T10:49:53.481Z,101986.75
2019-05-30T10:52:21.704Z,101987.17
2019-05-30T10:54:53.534Z,101982.80
2019-05-30T10:57:21.326Z,101988.47
2019-05-30T10:59:50.826Z,101985.86
2019-05-30T11:02:18.668Z,101984.54
2019-05-30T11:04:47.769Z,101995.52
2019-05-30T11:07:27.955Z,101988.07
2019-05-30T11:10:03.901Z,101988.97
2019-05-30T11:12:31.951Z,101989.85
2019-05-30T11:14:59.666Z,101991.59
2019-05-30T11:17:27.530Z,101987.22
2019-05-30T11:19:56.143Z,101982.39
2019-05-30T11:22:24.191Z,101987.66
2019-05-30T11:24:52.711Z,101985.44
2019-05-30T11:27:20.604Z,101984.60
2019-05-30T11:29:48.681Z,101995.13
2019-05-30T11:32:16.479Z,101995.98
2019-05-30T11:34:44.207Z,102000.40
2019-05-30T11:39:41.884Z,101997.29
2019-05-30T11:42:09.646Z,101999.91
2019-05-30T11:44:37.603Z,101995.55
2019-05-30T11:47:05.448Z,102001.69
2019-05-30T11:49:33.213Z,102014.38
2019-05-30T11:52:00.842Z,102005.17
2019-05-30T11:54:28.661Z,102013.48
2019-05-30T11:56:56.432Z,102016.52
2019-05-30T11:59:24.300Z,102021.83
2019-05-30T12:01:53.103Z,102019.19
2019-05-30T12:04:21.980Z,102017.92
2019-05-30T12:06:51.186Z,102020.95
2019-05-30T12:09:19.351Z,102015.69
2019-05-30T12:11:46.912Z,102015.20
2019-05-30T12:14:14.770Z,102016.97
2019-05-30T12:16:42.611Z,102027.49
2019-05-30T12:19:10.460Z,102016.52
2019-05-30T12:21:38.272Z,102024.89
2019-05-30T12:24:06.033Z,102030.98
2019-05-30T12:26:34.265Z,102033.19
2019-05-30T12:29:02.392Z,102026.19
2019-05-30T12:31:30.347Z,102029.63
2019-05-30T12:33:58.423Z,102029.15
2019-05-30T12:36:26.397Z,102029.15
2019-05-30T12:38:54.373Z,102024.77
2019-05-30T12:41:22.324Z,102028.73
2019-05-30T12:43:50.170Z,102027.84
2019-05-30T12:46:17.888Z,102035.73
2019-05-30T12:48:45.722Z,102035.72
2019-05-30T12:51:13.379Z,102033.55
2019-05-30T12:53:41.656Z,102037.52
2019-05-30T12:56:09.569Z,102034.00
2019-05-30T12:58:37.287Z,102029.62
2019-05-30T13:01:05.155Z,102034.46
2019-05-30T13:03:32.923Z,102046.25
2019-05-30T13:06:01.167Z,102036.61
2019-05-30T13:08:29.059Z,102034.86
2019-05-30T13:10:57.366Z,102035.27
2019-05-30T13:13:25.275Z,102038.80
2019-05-30T13:15:54.482Z,102030.86
2019-05-30T13:18:22.568Z,102037.42
2019-05-30T13:20:50.404Z,102034.78
2019-05-30T13:23:18.353Z,102047.03
2019-05-30T13:25:45.967Z,102044.39
2019-05-30T13:28:13.569Z,102049.67
2019-05-30T13:30:41.387Z,102044.41
2019-05-30T13:33:09.358Z,102050.55
2019-05-30T13:35:37.224Z,102046.62
2019-05-30T13:38:05.854Z,102053.62
2019-05-30T13:40:33.676Z,102057.14
2019-05-30T13:43:01.967Z,102056.71
2019-05-30T13:45:29.712Z,102059.34
2019-05-30T13:47:58.302Z,102053.62
2019-05-30T13:50:26.218Z,102053.62
2019-05-30T13:52:53.962Z,102049.67
2019-05-30T13:55:21.796Z,102056.70
2019-05-30T13:57:49.657Z,102045.70
2019-05-30T14:00:17.598Z,102046.58
2019-05-30T14:02:45.389Z,102050.48
2019-05-30T14:05:13.276Z,102043.49
2019-05-30T14:07:41.022Z,102043.49
2019-05-30T14:10:08.871Z,102048.33
2019-05-30T14:12:36.726Z,102056.64
2019-05-30T14:15:09.108Z,102049.64
2019-05-30T14:17:35.452Z,102050.96
2019-05-30T14:20:22.927Z,102058.02
2019-05-30T14:22:51.069Z,102048.83
2019-05-30T14:25:18.885Z,102057.14
2019-05-30T14:27:46.614Z,102051.47
2019-05-30T14:30:14.449Z,102049.27
2019-05-30T14:32:42.146Z,102055.41
2019-05-30T14:35:11.682Z,102056.31
2019-05-30T14:37:39.737Z,102052.36
2019-05-30T14:40:08.775Z,102052.36
2019-05-30T14:42:36.791Z,102057.17
2019-05-30T14:45:06.438Z,102050.16
2019-05-30T14:47:34.331Z,102051.48
2019-05-30T14:50:02.487Z,102049.27
2019-05-30T14:52:30.301Z,102043.16
2019-05-30T14:54:58.174Z,102044.88
2019-05-30T14:57:25.897Z,102049.27
2019-05-30T14:59:53.635Z,102052.78
2019-05-30T15:02:21.420Z,102048.35
2019-05-30T15:04:49.081Z,102049.22
2019-05-30T15:07:16.814Z,102048.80
2019-05-30T15:09:44.758Z,102046.17
2019-05-30T15:12:12.745Z,102045.70
2019-05-30T15:14:40.599Z,102049.63
2019-05-30T15:17:08.305Z,102046.52
2019-05-30T15:19:35.821Z,102049.55
2019-05-30T15:22:03.407Z,102043.37
2019-05-30T15:24:31.132Z,102039.89
2019-05-30T15:26:58.953Z,102041.20
2019-05-30T15:29:26.464Z,102041.62
2019-05-30T15:31:53.950Z,102044.24
2019-05-30T15:34:21.470Z,102042.05
2019-05-30T15:36:48.971Z,102038.09
2019-05-30T15:39:30.675Z,102032.83
2019-05-30T15:41:45.866Z,102033.73
2019-05-30T15:44:13.630Z,102034.15
2019-05-30T15:46:41.192Z,102033.30
2019-05-30T15:49:08.695Z,102031.50
2019-05-30T15:51:36.167Z,102036.33
2019-05-30T15:54:03.706Z,102033.23
2019-05-30T15:56:31.532Z,102034.13
2019-05-30T15:58:59.121Z,102033.22
2019-05-30T16:01:26.588Z,102031.89
2019-05-30T16:03:54.059Z,102034.11
2019-05-30T16:06:21.603Z,102032.39
2019-05-30T16:08:49.087Z,102029.35
2019-05-30T16:11:17.005Z,102027.15
2019-05-30T16:13:44.611Z,102027.58
2019-05-30T16:16:13.562Z,102025.00
2019-05-30T16:18:41.174Z,102035.53
2019-05-30T16:21:08.684Z,102032.44
2019-05-30T16:23:36.151Z,102035.08
2019-05-30T16:26:03.645Z,102026.34
2019-05-30T16:28:31.115Z,102034.69
2019-05-30T16:30:58.641Z,102029.42
2019-05-30T16:33:30.736Z,102032.95
2019-05-30T16:35:58.457Z,102024.64
2019-05-30T16:38:26.469Z,102033.85
2019-05-30T16:40:54.327Z,102021.59
2019-05-30T16:43:22.449Z,102029.07
2019-05-30T16:45:50.320Z,102033.87
2019-05-30T16:48:18.381Z,102033.45
2019-05-30T16:50:46.298Z,102028.62
2019-05-30T16:53:14.924Z,102035.26
2019-05-30T16:55:42.853Z,102035.26
2019-05-30T16:58:10.821Z,102026.49
2019-05-30T17:00:38.686Z,102030.01
2019-05-30T17:03:06.451Z,102024.34
2019-05-30T17:05:34.648Z,102021.70
2019-05-30T17:08:03.608Z,102014.68
2019-05-30T17:10:33.200Z,102019.11
2019-05-30T17:13:02.324Z,102015.16
2019-05-30T17:15:30.188Z,102010.38
2019-05-30T17:17:58.037Z,102010.83
2019-05-30T17:20:26.581Z,102068.70
2019-05-30T17:22:54.501Z,102066.08
2019-05-30T17:25:23.132Z,102052.08
2019-05-30T17:27:50.950Z,102050.77
2019-05-30T17:30:19.676Z,102074.03
2019-05-30T17:32:47.706Z,102072.25
2019-05-30T17:35:15.615Z,102065.69
2019-05-30T17:37:43.375Z,102071.41
2019-05-30T17:43:12.368Z,102078.45
2019-05-30T17:45:39.630Z,102083.28
2019-05-30T17:48:16.059Z,102068.40
2019-05-30T17:50:36.359Z,102078.50
2019-05-30T17:53:03.614Z,102074.15
2019-05-30T17:55:30.867Z,102079.41
2019-05-30T17:57:58.090Z,102075.47
2019-05-30T18:00:26.453Z,102079.44
2019-05-30T18:02:53.773Z,102086.01
2019-05-30T18:05:22.359Z,102087.77
2019-05-30T18:07:49.758Z,102094.80
2019-05-30T18:10:18.496Z,102093.92
2019-05-30T18:12:45.758Z,102085.19
2019-05-30T18:15:13.002Z,102089.13
2019-05-30T18:17:40.297Z,102085.62
2019-05-30T18:20:07.637Z,102090.04
2019-05-30T18:22:34.857Z,102088.73
2019-05-30T18:25:02.141Z,102086.11
2019-05-30T18:27:29.955Z,102059.92
2019-05-30T18:29:57.244Z,102093.99
2019-05-30T18:32:24.457Z,102093.12
2019-05-30T18:34:51.751Z,102092.69
2019-05-30T18:37:18.995Z,102100.16
2019-05-30T18:39:46.226Z,102094.02
2019-05-30T18:42:13.519Z,102100.17
2019-05-30T18:44:40.817Z,102105.86
2019-05-30T18:47:08.156Z,102112.89
2019-05-30T18:49:35.406Z,102107.66
2019-05-30T18:52:02.649Z,102108.97
2019-05-30T18:54:30.631Z,102112.44
2019-05-30T18:56:58.057Z,102106.76
2019-05-30T18:59:25.283Z,102108.97
2019-05-30T19:01:52.553Z,102115.55
2019-05-30T19:04:22.773Z,102109.41
2019-05-30T19:06:48.974Z,102115.98
2019-05-30T19:09:16.235Z,102086.34
2019-05-30T19:11:43.454Z,102101.56
2019-05-30T19:14:11.102Z,102100.68
2019-05-30T19:16:38.301Z,102102.42
2019-05-30T19:19:05.549Z,102107.72
2019-05-30T19:21:34.058Z,102107.72
2019-05-30T19:24:01.484Z,102118.23
2019-05-30T19:26:28.745Z,102111.67
2019-05-30T19:28:55.974Z,102117.36
2019-05-30T19:31:23.223Z,102119.11
2019-05-30T19:33:50.463Z,102121.78
2019-05-30T19:36:17.750Z,102116.95
2019-05-30T19:38:45.011Z,102123.52
2019-05-30T19:41:12.300Z,102127.02
2019-05-30T19:43:39.594Z,102130.95
2019-05-30T19:46:06.836Z,102137.53
2019-05-30T19:48:34.441Z,102136.22
2019-05-30T19:51:01.714Z,102137.53
2019-05-30T19:53:28.994Z,102135.80
2019-05-30T19:55:56.459Z,102137.97
2019-05-30T19:58:23.819Z,102134.91
2019-05-30T20:00:58.412Z,102138.44
2019-05-30T20:03:33.583Z,102135.81
2019-05-30T20:05:49.365Z,102139.33
2019-05-30T20:08:16.708Z,102140.65
2019-05-30T20:10:44.012Z,102142.82
2019-05-30T20:13:11.258Z,102131.45
2019-05-30T20:15:39.571Z,102139.34
2019-05-30T20:18:06.975Z,102137.19
2019-05-30T20:20:50.723Z,102141.98
2019-05-30T20:23:03.360Z,102136.73
2019-05-30T20:25:30.613Z,102132.80
2019-05-30T20:27:57.858Z,102129.74
2019-05-30T20:30:25.530Z,102124.91
2019-05-30T20:32:52.772Z,102125.80
2019-05-30T20:35:20.040Z,102129.75
2019-05-30T20:37:47.294Z,102119.70
2019-05-30T20:40:14.506Z,102125.39
2019-05-30T20:42:42.959Z,102120.60
2019-05-30T20:45:10.595Z,102116.67
2019-05-30T20:47:39.311Z,102122.77
2019-05-30T20:50:07.062Z,102118.88
2019-05-30T20:52:38.244Z,102121.51
2019-05-30T20:55:03.915Z,102115.83
2019-05-30T20:57:31.131Z,102120.63
2019-05-30T20:59:58.381Z,102125.45
2019-05-30T21:02:29.181Z,102126.78
2019-05-30T21:04:54.743Z,102128.52
2019-05-30T21:07:22.954Z,102127.25
2019-05-30T21:09:50.222Z,102127.67
2019-05-30T21:12:17.442Z,102127.25
2019-05-30T21:14:46.151Z,102125.94
2019-05-30T21:17:13.577Z,102126.83
2019-05-30T21:19:42.034Z,102125.95
2019-05-30T21:22:09.338Z,102129.01
2019-05-30T21:24:36.576Z,102139.98
2019-05-30T21:27:03.835Z,102129.90
2019-05-30T21:29:31.042Z,102123.80
2019-05-30T21:31:58.299Z,102121.17
2019-05-30T21:34:25.724Z,102122.48
2019-05-30T21:36:53.199Z,102121.60
2019-05-30T21:39:20.427Z,102115.03
2019-05-30T21:41:48.536Z,102115.92
2019-05-30T21:44:16.573Z,102121.17
2019-05-30T21:46:44.785Z,102112.45
2019-05-30T21:49:12.182Z,102131.27
2019-05-30T21:51:39.410Z,102131.27
2019-05-30T21:54:06.643Z,102128.65
2019-05-30T21:56:33.872Z,102131.70
2019-05-30T21:59:01.118Z,102129.96
2019-05-30T22:01:32.492Z,102133.02
2019-05-30T22:03:59.976Z,102130.84
2019-05-30T22:06:27.207Z,102125.59
2019-05-30T22:08:54.448Z,102123.86
2019-05-30T22:11:21.699Z,102119.91
2019-05-30T22:13:49.642Z,102126.02
2019-05-30T22:16:17.063Z,102123.86
2019-05-30T22:18:44.321Z,102125.17
2019-05-30T22:21:11.644Z,102119.92
2019-05-30T22:23:38.860Z,102107.22
2019-05-30T22:26:06.226Z,102110.27
2019-05-30T22:28:33.475Z,102106.33
2019-05-30T22:31:00.699Z,102106.33
2019-05-30T22:33:27.947Z,102105.02
2019-05-30T22:35:55.164Z,102102.39
2019-05-30T22:38:22.513Z,102101.08
2019-05-30T22:40:49.981Z,102093.66
2019-05-30T22:43:25.260Z,102094.97
2019-05-30T22:45:46.544Z,102090.56
2019-05-30T22:48:13.788Z,102087.52
2019-05-30T22:50:41.009Z,102080.52
2019-05-30T22:53:08.282Z,102073.95
2019-05-30T22:55:35.510Z,102068.71
2019-05-30T22:58:02.747Z,102075.73
2019-05-30T23:00:30.018Z,102080.54
2019-05-30T23:02:57.262Z,102081.00
2019-05-30T23:05:24.546Z,102076.17
2019-05-30T23:07:51.778Z,102063.47
2019-05-30T23:10:19.021Z,102064.35
2019-05-30T23:12:46.293Z,102062.62
2019-05-30T23:15:13.541Z,102063.05
2019-05-30T23:17:40.811Z,102058.67
2019-05-30T23:20:08.079Z,102050.37
2019-05-30T23:22:35.311Z,102050.37
2019-05-30T23:25:02.661Z,102049.48
2019-05-30T23:27:29.935Z,102050.81
2019-05-30T23:29:58.028Z,102049.50
2019-05-30T23:32:25.342Z,102051.23
2019-05-30T23:34:52.557Z,102056.48
2019-05-30T23:37:19.845Z,102051.23
2019-05-30T23:39:47.129Z,102035.94
2019-05-30T23:42:14.906Z,102039.88
2019-05-30T23:44:42.162Z,102036.83
2019-05-30T23:47:09.639Z,102041.20
2019-05-30T23:49:36.903Z,102042.50
2019-05-30T23:52:04.153Z,102043.36
2019-05-30T23:54:31.508Z,102043.36
2019-05-30T23:56:58.748Z,102053.44
2019-05-30T23:59:25.996Z,102049.50
